Bookmark and Share
Track history (hours):
 

Baltic Princess

Last reported at 2013-Jan-22 14:34 UTC. Time now 2014-Apr-24 02:05 UTC.
Position N 59°52' E 021°28'.
Warning: this ship's position is years out of date!

Length 212 m; draft 6.3 m.

Type: Passenger vessel. MMSI: 276673000.

NotesDate/timePositionNaut miles runAvg speedWind from/ knotsBaromVisibWave heightAir tempDewpointWater temp
2013-Jan-22 14:34N 59°52' E 021°28'1414.3
2013-Jan-22 13:34N 59°38' E 021°22'9122.8
2013-Jan-22 09:33N 59°30' E 024°22'1312.6
2013-Jan-22 08:31N 59°27' E 024°46'0 0.0
2013-Jan-22 07:31N 59°27' E 024°46'0 0.0
2013-Jan-22 06:30N 59°27' E 024°46'0 0.0
2013-Jan-22 05:36N 59°27' E 024°46'0 0.0
2013-Jan-22 04:33N 59°27' E 024°46'0 0.0
2013-Jan-22 03:29N 59°27' E 024°46'0 0.0
2013-Jan-22 02:13N 59°27' E 024°46'0 0.0
2013-Jan-22 01:31N 59°27' E 024°46'0 0.0
2013-Jan-22 00:31N 59°27' E 024°46'0 0.0
2013-Jan-21 23:33N 59°27' E 024°46'0 0.0
2013-Jan-21 22:33N 59°27' E 024°46'0 0.0
2013-Jan-21 21:33N 59°27' E 024°46'0 0.0
2013-Jan-21 20:26N 59°27' E 024°46'2 1.8
2013-Jan-21 19:33N 59°28' E 024°46'1515.2
2013-Jan-21 18:33N 59°43' E 024°40'1515.2
2013-Jan-21 17:33N 59°57' E 024°52'1312.5
2013-Jan-21 16:34N 60°09' E 024°55'0 0.0
2013-Jan-21 15:33N 60°09' E 024°55'0 0.0
2013-Jan-21 14:33N 60°09' E 024°55'7 6.8
2013-Jan-21 13:33N 60°02' E 024°54'1616.1
2013-Jan-21 12:33N 59°47' E 024°44'1516.1
2013-Jan-21 11:36N 59°32' E 024°44'5 5.0
2013-Jan-21 10:33N 59°27' E 024°46'0 0.0
2013-Jan-21 09:33N 59°27' E 024°46'0 0.0
2013-Jan-21 08:33N 59°27' E 024°46'0 0.0
2013-Jan-21 07:33N 59°27' E 024°46'0 0.0
2013-Jan-21 06:33N 59°27' E 024°46'0 0.0
2013-Jan-21 05:42N 59°27' E 024°46'0 0.0
2013-Jan-21 04:33N 59°27' E 024°46'0 0.0
2013-Jan-21 03:33N 59°27' E 024°46'0 0.0
2013-Jan-21 02:33N 59°27' E 024°46'0 0.0
2013-Jan-21 01:34N 59°27' E 024°46'0 0.0
2013-Jan-21 01:03N 59°27' E 024°46'0 0.0
2013-Jan-21 00:34N 59°27' E 024°46'0 0.0
2013-Jan-20 23:34N 59°27' E 024°46'0 0.0
2013-Jan-20 22:33N 59°27' E 024°46'0 0.0
2013-Jan-20 21:34N 59°27' E 024°46'  
2013-Jan-17 10:28N 59°27' E 024°46'0 0.0
2013-Jan-17 09:28N 59°27' E 024°46'0 0.0
2013-Jan-17 08:33N 59°27' E 024°46'0 0.0
2013-Jan-17 07:33N 59°27' E 024°46'0 0.0
2013-Jan-17 06:29N 59°27' E 024°46'0 0.0
2013-Jan-17 05:41N 59°27' E 024°46'0 0.0
2013-Jan-17 04:31N 59°27' E 024°46'0 0.0
2013-Jan-17 03:31N 59°27' E 024°46'0 0.0
2013-Jan-17 02:31N 59°27' E 024°46'0 0.0
2013-Jan-17 01:33N 59°27' E 024°46'0 0.0
2013-Jan-17 00:33N 59°27' E 024°46'0 0.0
2013-Jan-16 23:32N 59°27' E 024°46'0 0.0
2013-Jan-16 22:32N 59°27' E 024°46'0 0.0
2013-Jan-16 21:31N 59°27' E 024°46'0 0.0
2013-Jan-16 20:31N 59°27' E 024°46'3 3.0
2013-Jan-16 19:34N 59°30' E 024°45'1514.6
2013-Jan-16 18:34N 59°44' E 024°40'1515.1
2013-Jan-16 17:33N 59°58' E 024°53'1111.6
2013-Jan-16 16:33N 60°09' E 024°55'0 0.0
2013-Jan-16 15:33N 60°09' E 024°55'0 0.0
2013-Jan-16 14:33N 60°09' E 024°55'7 6.8
2013-Jan-16 13:33N 60°02' E 024°54'1515.4
2013-Jan-16 12:33N 59°48' E 024°45'1415.3
2013-Jan-16 11:38N 59°34' E 024°43'7 6.5
2013-Jan-16 10:32N 59°27' E 024°46'0 0.0
2013-Jan-16 09:31N 59°27' E 024°46'0 0.0
2013-Jan-16 08:31N 59°27' E 024°46'0 0.0
2013-Jan-16 07:30N 59°27' E 024°46'0 0.0
2013-Jan-16 06:30N 59°27' E 024°46'0 0.0
2013-Jan-16 05:42N 59°27' E 024°46'0 0.0
2013-Jan-16 04:32N 59°27' E 024°46'0 0.0
2013-Jan-16 03:32N 59°27' E 024°46'0 0.0
2013-Jan-16 02:31N 59°27' E 024°46'0 0.0
2013-Jan-16 01:31N 59°27' E 024°46'0 0.0
2013-Jan-16 00:33N 59°27' E 024°46'0 0.0
2013-Jan-15 23:33N 59°27' E 024°46'0 0.0
2013-Jan-15 22:33N 59°27' E 024°46'0 0.0
2013-Jan-15 21:26N 59°27' E 024°46'0 0.0
2013-Jan-15 20:32N 59°27' E 024°46'2 2.4
2013-Jan-15 19:33N 59°29' E 024°46'1312.9
2013-Jan-15 18:33N 59°41' E 024°39'1616.5
2013-Jan-15 17:33N 59°57' E 024°52'1312.6
2013-Jan-15 16:33N 60°09' E 024°55'0 0.0
2013-Jan-15 15:33N 60°09' E 024°55'0 0.0
2013-Jan-15 14:33N 60°09' E 024°55'7 6.7
2013-Jan-15 13:33N 60°03' E 024°54'1515.3
2013-Jan-15 12:33N 59°48' E 024°45'1415.2
2013-Jan-15 11:38N 59°34' E 024°42'8 7.1
2013-Jan-15 10:34N 59°27' E 024°46'0 0.0
2013-Jan-15 09:32N 59°27' E 024°46'0 0.0
2013-Jan-15 08:31N 59°27' E 024°46'0 0.0
2013-Jan-15 07:31N 59°27' E 024°46'0 0.0
2013-Jan-15 06:33N 59°27' E 024°46'0 0.0
2013-Jan-15 05:36N 59°27' E 024°46'0 0.0
2013-Jan-15 04:32N 59°27' E 024°46'0 0.0
2013-Jan-15 03:32N 59°27' E 024°46'0 0.0
2013-Jan-15 02:29N 59°27' E 024°46'0 0.0
2013-Jan-15 01:31N 59°27' E 024°46'0 0.0
2013-Jan-15 00:31N 59°27' E 024°46'0 0.0
2013-Jan-14 23:33N 59°27' E 024°46'0 0.0
2013-Jan-14 22:33N 59°27' E 024°46'0 0.0
2013-Jan-14 21:32N 59°27' E 024°46'0 0.0
2013-Jan-14 20:32N 59°27' E 024°46'3 2.8
2013-Jan-14 19:33N 59°29' E 024°45'1414.4
2013-Jan-14 18:33N 59°44' E 024°40'1515.2
2013-Jan-14 17:33N 59°57' E 024°53'1211.9
2013-Jan-14 16:33N 60°09' E 024°55'0 0.0
2013-Jan-14 15:33N 60°09' E 024°55'0 0.0
2013-Jan-14 14:33N 60°09' E 024°55'7 6.8
2013-Jan-14 13:33N 60°02' E 024°54'1616.1
2013-Jan-14 12:33N 59°47' E 024°44'1515.6
2013-Jan-14 11:37N 59°33' E 024°44'6 5.5
2013-Jan-14 10:30N 59°27' E 024°46'0 0.0
2013-Jan-14 09:33N 59°27' E 024°46'0 0.0
2013-Jan-14 08:33N 59°27' E 024°46'0 0.0
2013-Jan-14 07:23N 59°27' E 024°46'0 0.0
2013-Jan-14 06:32N 59°27' E 024°46'0 0.0
2013-Jan-14 05:31N 59°27' E 024°46'0 0.0
2013-Jan-14 04:31N 59°27' E 024°46'0 0.0
2013-Jan-14 03:33N 59°27' E 024°46'0 0.0
2013-Jan-14 02:33N 59°27' E 024°46'0 0.0
2013-Jan-14 01:33N 59°27' E 024°46'0 0.0
2013-Jan-14 00:26N 59°27' E 024°46'0 0.0
2013-Jan-13 23:32N 59°27' E 024°46'0 0.0
2013-Jan-13 22:31N 59°27' E 024°46'0 0.0
2013-Jan-13 21:31N 59°27' E 024°46'0 0.0
2013-Jan-13 20:33N 59°27' E 024°46'3 2.6
2013-Jan-13 19:34N 59°29' E 024°45'1414.5
2013-Jan-13 18:34N 59°43' E 024°40'1413.8
2013-Jan-13 17:34N 59°56' E 024°51'1313.1
2013-Jan-13 16:34N 60°09' E 024°55'0 0.2
2013-Jan-13 15:33N 60°09' E 024°55'0 0.0
2013-Jan-13 14:33N 60°09' E 024°55'7 7.3
2013-Jan-13 13:33N 60°02' E 024°55'1716.6
2013-Jan-13 12:34N 59°46' E 024°43'1415.4
2013-Jan-13 11:38N 59°32' E 024°44'5 5.0
2013-Jan-13 10:32N 59°27' E 024°46'0 0.0
2013-Jan-13 09:32N 59°27' E 024°46'0 0.0
2013-Jan-13 08:31N 59°27' E 024°46'0 0.0
2013-Jan-13 07:31N 59°27' E 024°46'0 0.0
2013-Jan-13 06:33N 59°27' E 024°46'0 0.0
2013-Jan-13 05:36N 59°27' E 024°46'0 0.0
2013-Jan-13 04:32N 59°27' E 024°46'0 0.0
2013-Jan-13 03:32N 59°27' E 024°46'0 0.0
2013-Jan-13 02:31N 59°27' E 024°46'0 0.0
2013-Jan-13 01:31N 59°27' E 024°46'0 0.0
2013-Jan-13 00:31N 59°27' E 024°46'0 0.0
2013-Jan-12 23:33N 59°27' E 024°46'0 0.0
2013-Jan-12 22:27N 59°27' E 024°46'0 0.0
2013-Jan-12 21:32N 59°27' E 024°46'0 0.0
2013-Jan-12 20:32N 59°27' E 024°46'2 2.2
2013-Jan-12 19:34N 59°29' E 024°46'1413.6
2013-Jan-12 18:33N 59°42' E 024°41'2813.9
2013-Jan-12 16:33N 60°09' E 024°55'0 0.2
2013-Jan-12 15:32N 60°09' E 024°55'  

Dump ship's entire track history

sailing weather and tide predictions

Baltic Princess — ESCK — position and weather